sensor_id;sensor_type;location;lat;lon;timestamp;P1;durP1;ratioP1;P2;durP2;ratioP2
10110;SDS011;5095;49.796;9.934;2023-03-30T00:00:36;5.37;;;2.53;;
10110;SDS011;5095;49.796;9.934;2023-03-30T00:03:02;4.77;;;2.50;;
10110;SDS011;5095;49.796;9.934;2023-03-30T00:05:28;5.53;;;2.47;;
10110;SDS011;5095;49.796;9.934;2023-03-30T00:07:54;5.27;;;2.40;;
10110;SDS011;5095;49.796;9.934;2023-03-30T00:10:20;6.87;;;2.30;;
10110;SDS011;5095;49.796;9.934;2023-03-30T00:12:47;4.83;;;2.50;;
10110;SDS011;5095;49.796;9.934;2023-03-30T00:15:15;7.83;;;2.60;;
10110;SDS011;5095;49.796;9.934;2023-03-30T00:17:41;6.07;;;2.97;;
10110;SDS011;5095;49.796;9.934;2023-03-30T00:20:08;5.83;;;2.73;;
10110;SDS011;5095;49.796;9.934;2023-03-30T00:22:36;6.53;;;2.60;;
10110;SDS011;5095;49.796;9.934;2023-03-30T00:25:03;3.80;;;2.53;;
10110;SDS011;5095;49.796;9.934;2023-03-30T00:27:29;4.97;;;2.53;;
10110;SDS011;5095;49.796;9.934;2023-03-30T00:29:55;6.80;;;2.70;;
10110;SDS011;5095;49.796;9.934;2023-03-30T00:32:21;8.50;;;2.90;;
10110;SDS011;5095;49.796;9.934;2023-03-30T00:34:47;7.30;;;3.00;;
10110;SDS011;5095;49.796;9.934;2023-03-30T00:37:13;6.33;;;2.60;;
10110;SDS011;5095;49.796;9.934;2023-03-30T00:39:39;4.80;;;2.33;;
10110;SDS011;5095;49.796;9.934;2023-03-30T00:42:05;4.17;;;2.47;;
10110;SDS011;5095;49.796;9.934;2023-03-30T00:47:16;7.60;;;2.57;;
10110;SDS011;5095;49.796;9.934;2023-03-30T00:49:42;5.27;;;2.70;;
10110;SDS011;5095;49.796;9.934;2023-03-30T00:52:09;8.07;;;3.00;;
10110;SDS011;5095;49.796;9.934;2023-03-30T00:54:36;6.40;;;2.83;;
10110;SDS011;5095;49.796;9.934;2023-03-30T00:57:03;6.60;;;2.47;;
10110;SDS011;5095;49.796;9.934;2023-03-30T00:59:29;3.17;;;2.57;;
10110;SDS011;5095;49.796;9.934;2023-03-30T01:01:55;4.50;;;2.57;;
10110;SDS011;5095;49.796;9.934;2023-03-30T01:04:22;4.20;;;2.37;;
10110;SDS011;5095;49.796;9.934;2023-03-30T01:06:49;4.93;;;2.40;;
10110;SDS011;5095;49.796;9.934;2023-03-30T01:09:16;5.40;;;2.77;;
10110;SDS011;5095;49.796;9.934;2023-03-30T01:11:42;5.57;;;3.00;;
10110;SDS011;5095;49.796;9.934;2023-03-30T01:14:09;5.47;;;2.10;;
10110;SDS011;5095;49.796;9.934;2023-03-30T01:16:41;6.00;;;2.67;;
10110;SDS011;5095;49.796;9.934;2023-03-30T01:19:24;4.50;;;2.40;;
10110;SDS011;5095;49.796;9.934;2023-03-30T01:32:41;8.67;;;2.63;;
10110;SDS011;5095;49.796;9.934;2023-03-30T01:37:43;7.20;;;2.43;;
10110;SDS011;5095;49.796;9.934;2023-03-30T01:42:56;9.50;;;2.90;;
10110;SDS011;5095;49.796;9.934;2023-03-30T01:45:33;5.90;;;2.50;;
10110;SDS011;5095;49.796;9.934;2023-03-30T01:50:40;5.93;;;2.07;;
10110;SDS011;5095;49.796;9.934;2023-03-30T01:53:17;4.13;;;2.17;;
10110;SDS011;5095;49.796;9.934;2023-03-30T01:55:47;3.80;;;2.10;;
10110;SDS011;5095;49.796;9.934;2023-03-30T01:58:19;5.43;;;2.40;;
10110;SDS011;5095;49.796;9.934;2023-03-30T02:00:47;5.03;;;2.50;;
10110;SDS011;5095;49.796;9.934;2023-03-30T02:03:36;3.80;;;2.13;;
10110;SDS011;5095;49.796;9.934;2023-03-30T02:06:02;4.07;;;2.00;;
10110;SDS011;5095;49.796;9.934;2023-03-30T02:08:30;5.03;;;2.47;;
10110;SDS011;5095;49.796;9.934;2023-03-30T02:10:57;4.13;;;2.53;;
10110;SDS011;5095;49.796;9.934;2023-03-30T02:13:23;5.53;;;2.27;;
10110;SDS011;5095;49.796;9.934;2023-03-30T02:15:54;6.73;;;2.50;;
10110;SDS011;5095;49.796;9.934;2023-03-30T02:18:21;6.03;;;2.20;;
10110;SDS011;5095;49.796;9.934;2023-03-30T02:20:47;5.70;;;2.40;;
10110;SDS011;5095;49.796;9.934;2023-03-30T02:23:14;4.50;;;2.20;;
10110;SDS011;5095;49.796;9.934;2023-03-30T02:25:40;4.90;;;2.20;;
10110;SDS011;5095;49.796;9.934;2023-03-30T02:28:07;4.93;;;2.10;;
10110;SDS011;5095;49.796;9.934;2023-03-30T02:30:33;5.20;;;2.13;;
10110;SDS011;5095;49.796;9.934;2023-03-30T02:33:01;3.30;;;2.30;;
10110;SDS011;5095;49.796;9.934;2023-03-30T02:38:27;5.97;;;2.17;;
10110;SDS011;5095;49.796;9.934;2023-03-30T02:46:07;7.10;;;2.70;;
10110;SDS011;5095;49.796;9.934;2023-03-30T02:59:19;5.00;;;2.43;;
10110;SDS011;5095;49.796;9.934;2023-03-30T03:01:51;6.90;;;3.00;;
10110;SDS011;5095;49.796;9.934;2023-03-30T03:04:21;7.50;;;2.10;;
10110;SDS011;5095;49.796;9.934;2023-03-30T03:06:47;7.17;;;2.33;;
10110;SDS011;5095;49.796;9.934;2023-03-30T03:09:17;5.53;;;2.80;;
10110;SDS011;5095;49.796;9.934;2023-03-30T03:11:43;14.93;;;3.10;;
10110;SDS011;5095;49.796;9.934;2023-03-30T03:14:09;8.17;;;2.70;;
10110;SDS011;5095;49.796;9.934;2023-03-30T03:16:36;8.27;;;2.53;;
10110;SDS011;5095;49.796;9.934;2023-03-30T03:19:02;9.37;;;2.47;;
10110;SDS011;5095;49.796;9.934;2023-03-30T03:21:28;9.27;;;2.40;;
10110;SDS011;5095;49.796;9.934;2023-03-30T03:23:54;8.90;;;2.90;;
10110;SDS011;5095;49.796;9.934;2023-03-30T03:26:20;7.60;;;2.70;;
10110;SDS011;5095;49.796;9.934;2023-03-30T03:28:47;8.97;;;2.63;;
10110;SDS011;5095;49.796;9.934;2023-03-30T03:31:13;6.60;;;2.20;;
10110;SDS011;5095;49.796;9.934;2023-03-30T03:33:39;6.73;;;2.30;;
10110;SDS011;5095;49.796;9.934;2023-03-30T03:36:05;7.03;;;2.10;;
10110;SDS011;5095;49.796;9.934;2023-03-30T03:38:31;4.97;;;2.20;;
10110;SDS011;5095;49.796;9.934;2023-03-30T03:40:57;5.33;;;2.50;;
10110;SDS011;5095;49.796;9.934;2023-03-30T03:43:24;6.65;;;2.35;;
10110;SDS011;5095;49.796;9.934;2023-03-30T03:45:50;8.37;;;2.83;;
10110;SDS011;5095;49.796;9.934;2023-03-30T03:48:18;5.73;;;2.43;;
10110;SDS011;5095;49.796;9.934;2023-03-30T03:50:44;7.30;;;2.70;;
10110;SDS011;5095;49.796;9.934;2023-03-30T03:53:11;10.03;;;3.93;;
10110;SDS011;5095;49.796;9.934;2023-03-30T03:55:37;10.73;;;3.67;;
10110;SDS011;5095;49.796;9.934;2023-03-30T03:58:03;5.83;;;2.80;;
10110;SDS011;5095;49.796;9.934;2023-03-30T04:00:30;9.53;;;2.40;;
10110;SDS011;5095;49.796;9.934;2023-03-30T04:02:56;14.53;;;3.10;;
10110;SDS011;5095;49.796;9.934;2023-03-30T04:05:22;14.67;;;3.07;;
10110;SDS011;5095;49.796;9.934;2023-03-30T04:07:48;9.63;;;2.60;;
10110;SDS011;5095;49.796;9.934;2023-03-30T04:10:17;7.57;;;3.17;;
10110;SDS011;5095;49.796;9.934;2023-03-30T04:12:43;12.37;;;3.20;;
10110;SDS011;5095;49.796;9.934;2023-03-30T04:15:10;10.73;;;3.20;;
10110;SDS011;5095;49.796;9.934;2023-03-30T04:17:36;10.03;;;2.70;;
10110;SDS011;5095;49.796;9.934;2023-03-30T04:20:05;8.73;;;2.37;;
10110;SDS011;5095;49.796;9.934;2023-03-30T04:22:35;8.50;;;2.33;;
10110;SDS011;5095;49.796;9.934;2023-03-30T04:25:01;8.13;;;2.53;;
10110;SDS011;5095;49.796;9.934;2023-03-30T04:27:31;10.63;;;2.73;;
10110;SDS011;5095;49.796;9.934;2023-03-30T04:29:57;8.23;;;2.27;;
10110;SDS011;5095;49.796;9.934;2023-03-30T04:32:23;11.43;;;2.50;;
10110;SDS011;5095;49.796;9.934;2023-03-30T04:34:50;12.60;;;2.50;;
10110;SDS011;5095;49.796;9.934;2023-03-30T04:37:19;8.97;;;2.90;;
10110;SDS011;5095;49.796;9.934;2023-03-30T04:39:54;9.87;;;2.50;;
10110;SDS011;5095;49.796;9.934;2023-03-30T04:42:21;7.47;;;2.60;;
10110;SDS011;5095;49.796;9.934;2023-03-30T04:44:55;9.00;;;2.67;;
10110;SDS011;5095;49.796;9.934;2023-03-30T04:47:22;9.97;;;2.97;;
10110;SDS011;5095;49.796;9.934;2023-03-30T04:49:48;8.57;;;3.03;;
10110;SDS011;5095;49.796;9.934;2023-03-30T04:52:14;4.97;;;2.50;;
10110;SDS011;5095;49.796;9.934;2023-03-30T04:54:40;10.93;;;2.90;;
10110;SDS011;5095;49.796;9.934;2023-03-30T04:57:06;9.33;;;2.63;;
10110;SDS011;5095;49.796;9.934;2023-03-30T04:59:32;11.83;;;3.60;;
10110;SDS011;5095;49.796;9.934;2023-03-30T05:01:58;9.80;;;2.93;;
10110;SDS011;5095;49.796;9.934;2023-03-30T05:04:24;10.73;;;2.80;;
10110;SDS011;5095;49.796;9.934;2023-03-30T05:06:51;8.67;;;2.97;;
10110;SDS011;5095;49.796;9.934;2023-03-30T05:09:17;7.93;;;2.60;;
10110;SDS011;5095;49.796;9.934;2023-03-30T05:11:43;8.60;;;3.00;;
10110;SDS011;5095;49.796;9.934;2023-03-30T05:14:08;10.93;;;3.33;;
10110;SDS011;5095;49.796;9.934;2023-03-30T05:16:34;6.67;;;2.60;;
10110;SDS011;5095;49.796;9.934;2023-03-30T05:19:01;9.03;;;2.83;;
10110;SDS011;5095;49.796;9.934;2023-03-30T05:21:27;11.00;;;2.47;;
10110;SDS011;5095;49.796;9.934;2023-03-30T05:23:55;5.53;;;2.47;;
10110;SDS011;5095;49.796;9.934;2023-03-30T05:26:21;8.10;;;2.67;;
10110;SDS011;5095;49.796;9.934;2023-03-30T05:28:48;15.47;;;8.73;;
10110;SDS011;5095;49.796;9.934;2023-03-30T05:31:14;9.40;;;3.37;;
10110;SDS011;5095;49.796;9.934;2023-03-30T05:33:41;10.57;;;3.43;;
10110;SDS011;5095;49.796;9.934;2023-03-30T05:36:07;12.80;;;4.67;;
10110;SDS011;5095;49.796;9.934;2023-03-30T05:38:33;9.60;;;3.10;;
10110;SDS011;5095;49.796;9.934;2023-03-30T05:41:00;9.13;;;2.97;;
10110;SDS011;5095;49.796;9.934;2023-03-30T05:43:26;9.83;;;2.90;;
10110;SDS011;5095;49.796;9.934;2023-03-30T05:45:52;9.77;;;3.20;;
10110;SDS011;5095;49.796;9.934;2023-03-30T05:48:18;14.27;;;3.53;;
10110;SDS011;5095;49.796;9.934;2023-03-30T05:50:46;8.10;;;3.40;;
10110;SDS011;5095;49.796;9.934;2023-03-30T05:53:12;8.20;;;2.70;;
10110;SDS011;5095;49.796;9.934;2023-03-30T05:55:38;11.97;;;3.47;;
10110;SDS011;5095;49.796;9.934;2023-03-30T05:58:04;9.17;;;3.20;;
10110;SDS011;5095;49.796;9.934;2023-03-30T06:00:30;12.17;;;3.30;;
10110;SDS011;5095;49.796;9.934;2023-03-30T06:03:01;9.63;;;2.90;;
10110;SDS011;5095;49.796;9.934;2023-03-30T06:05:28;12.20;;;3.00;;
10110;SDS011;5095;49.796;9.934;2023-03-30T06:07:54;11.20;;;4.00;;
10110;SDS011;5095;49.796;9.934;2023-03-30T06:10:20;11.00;;;3.00;;
10110;SDS011;5095;49.796;9.934;2023-03-30T06:12:46;11.97;;;3.30;;
10110;SDS011;5095;49.796;9.934;2023-03-30T06:15:12;8.00;;;3.00;;
10110;SDS011;5095;49.796;9.934;2023-03-30T06:17:38;12.10;;;2.87;;
10110;SDS011;5095;49.796;9.934;2023-03-30T06:20:05;10.07;;;3.07;;
10110;SDS011;5095;49.796;9.934;2023-03-30T06:22:35;12.63;;;4.10;;
10110;SDS011;5095;49.796;9.934;2023-03-30T06:25:01;12.47;;;3.20;;
10110;SDS011;5095;49.796;9.934;2023-03-30T06:27:27;12.37;;;3.37;;
10110;SDS011;5095;49.796;9.934;2023-03-30T06:29:56;12.17;;;3.13;;
10110;SDS011;5095;49.796;9.934;2023-03-30T06:32:22;11.53;;;3.50;;
10110;SDS011;5095;49.796;9.934;2023-03-30T06:34:49;13.30;;;4.33;;
10110;SDS011;5095;49.796;9.934;2023-03-30T06:37:16;13.43;;;3.90;;
10110;SDS011;5095;49.796;9.934;2023-03-30T06:39:43;15.83;;;5.40;;
10110;SDS011;5095;49.796;9.934;2023-03-30T06:42:09;16.87;;;9.27;;
10110;SDS011;5095;49.796;9.934;2023-03-30T06:44:35;12.83;;;4.67;;
10110;SDS011;5095;49.796;9.934;2023-03-30T06:47:02;14.10;;;3.73;;
10110;SDS011;5095;49.796;9.934;2023-03-30T06:49:30;11.07;;;3.37;;
10110;SDS011;5095;49.796;9.934;2023-03-30T06:51:56;13.80;;;3.33;;
10110;SDS011;5095;49.796;9.934;2023-03-30T06:54:22;19.23;;;3.80;;
10110;SDS011;5095;49.796;9.934;2023-03-30T06:56:48;13.97;;;3.97;;
10110;SDS011;5095;49.796;9.934;2023-03-30T06:59:16;8.97;;;3.50;;
10110;SDS011;5095;49.796;9.934;2023-03-30T07:01:42;12.23;;;3.43;;
10110;SDS011;5095;49.796;9.934;2023-03-30T07:04:08;10.83;;;3.83;;
10110;SDS011;5095;49.796;9.934;2023-03-30T07:06:34;15.47;;;3.80;;
10110;SDS011;5095;49.796;9.934;2023-03-30T07:09:01;18.90;;;4.10;;
10110;SDS011;5095;49.796;9.934;2023-03-30T07:11:29;10.63;;;3.60;;
10110;SDS011;5095;49.796;9.934;2023-03-30T07:13:55;14.07;;;3.30;;
10110;SDS011;5095;49.796;9.934;2023-03-30T07:16:22;12.93;;;3.53;;
10110;SDS011;5095;49.796;9.934;2023-03-30T07:18:48;15.83;;;3.30;;
10110;SDS011;5095;49.796;9.934;2023-03-30T07:21:14;12.23;;;3.97;;
10110;SDS011;5095;49.796;9.934;2023-03-30T07:23:40;14.47;;;4.40;;
10110;SDS011;5095;49.796;9.934;2023-03-30T07:26:07;12.03;;;3.60;;
10110;SDS011;5095;49.796;9.934;2023-03-30T07:28:33;11.43;;;4.53;;
10110;SDS011;5095;49.796;9.934;2023-03-30T07:31:05;10.90;;;3.27;;
10110;SDS011;5095;49.796;9.934;2023-03-30T07:33:32;10.40;;;3.23;;
10110;SDS011;5095;49.796;9.934;2023-03-30T07:35:58;10.10;;;3.43;;
10110;SDS011;5095;49.796;9.934;2023-03-30T07:38:24;14.73;;;3.63;;
10110;SDS011;5095;49.796;9.934;2023-03-30T07:40:51;15.85;;;4.43;;
10110;SDS011;5095;49.796;9.934;2023-03-30T07:43:17;12.60;;;3.87;;
10110;SDS011;5095;49.796;9.934;2023-03-30T07:45:43;9.77;;;3.33;;
10110;SDS011;5095;49.796;9.934;2023-03-30T07:48:09;13.63;;;3.97;;
10110;SDS011;5095;49.796;9.934;2023-03-30T07:50:35;12.52;;;4.05;;
10110;SDS011;5095;49.796;9.934;2023-03-30T07:53:02;11.17;;;3.33;;
10110;SDS011;5095;49.796;9.934;2023-03-30T07:55:28;11.23;;;3.13;;
10110;SDS011;5095;49.796;9.934;2023-03-30T07:57:54;13.90;;;6.47;;
10110;SDS011;5095;49.796;9.934;2023-03-30T08:00:21;8.87;;;3.27;;
10110;SDS011;5095;49.796;9.934;2023-03-30T08:02:47;12.90;;;3.50;;
10110;SDS011;5095;49.796;9.934;2023-03-30T08:05:13;8.43;;;2.70;;
10110;SDS011;5095;49.796;9.934;2023-03-30T08:07:41;14.13;;;2.80;;
10110;SDS011;5095;49.796;9.934;2023-03-30T08:10:07;9.77;;;3.10;;
10110;SDS011;5095;49.796;9.934;2023-03-30T08:12:34;11.13;;;4.47;;
10110;SDS011;5095;49.796;9.934;2023-03-30T08:15:00;14.87;;;7.93;;
10110;SDS011;5095;49.796;9.934;2023-03-30T08:17:26;9.97;;;3.37;;
10110;SDS011;5095;49.796;9.934;2023-03-30T08:19:52;11.27;;;3.07;;
10110;SDS011;5095;49.796;9.934;2023-03-30T08:22:20;8.87;;;3.43;;
10110;SDS011;5095;49.796;9.934;2023-03-30T08:24:46;8.47;;;3.40;;
10110;SDS011;5095;49.796;9.934;2023-03-30T08:27:12;10.77;;;3.40;;
10110;SDS011;5095;49.796;9.934;2023-03-30T08:29:38;10.30;;;3.30;;
10110;SDS011;5095;49.796;9.934;2023-03-30T08:32:05;8.43;;;3.30;;
10110;SDS011;5095;49.796;9.934;2023-03-30T08:34:31;10.60;;;3.50;;
10110;SDS011;5095;49.796;9.934;2023-03-30T08:36:57;11.70;;;3.80;;
10110;SDS011;5095;49.796;9.934;2023-03-30T08:39:23;13.77;;;4.32;;
10110;SDS011;5095;49.796;9.934;2023-03-30T08:47:01;11.80;;;3.80;;
10110;SDS011;5095;49.796;9.934;2023-03-30T08:49:28;10.67;;;3.80;;
10110;SDS011;5095;49.796;9.934;2023-03-30T08:51:55;10.27;;;3.53;;
10110;SDS011;5095;49.796;9.934;2023-03-30T08:54:21;8.37;;;3.17;;
10110;SDS011;5095;49.796;9.934;2023-03-30T09:04:19;12.93;;;3.90;;
10110;SDS011;5095;49.796;9.934;2023-03-30T09:06:49;10.93;;;4.07;;
10110;SDS011;5095;49.796;9.934;2023-03-30T09:09:20;9.00;;;3.43;;
10110;SDS011;5095;49.796;9.934;2023-03-30T09:11:47;13.73;;;4.20;;
10110;SDS011;5095;49.796;9.934;2023-03-30T09:14:26;17.10;;;8.47;;
10110;SDS011;5095;49.796;9.934;2023-03-30T09:16:55;14.47;;;8.03;;
10110;SDS011;5095;49.796;9.934;2023-03-30T09:19:24;9.53;;;3.30;;
10110;SDS011;5095;49.796;9.934;2023-03-30T09:21:52;11.70;;;3.20;;
10110;SDS011;5095;49.796;9.934;2023-03-30T09:24:23;12.55;;;3.95;;
10110;SDS011;5095;49.796;9.934;2023-03-30T09:26:55;10.73;;;3.53;;
10110;SDS011;5095;49.796;9.934;2023-03-30T09:29:35;12.37;;;3.97;;
10110;SDS011;5095;49.796;9.934;2023-03-30T09:34:39;16.83;;;6.87;;
10110;SDS011;5095;49.796;9.934;2023-03-30T09:37:16;10.77;;;3.13;;
10110;SDS011;5095;49.796;9.934;2023-03-30T09:39:46;8.90;;;3.40;;
10110;SDS011;5095;49.796;9.934;2023-03-30T09:42:21;10.67;;;3.83;;
10110;SDS011;5095;49.796;9.934;2023-03-30T09:44:59;7.07;;;3.30;;
10110;SDS011;5095;49.796;9.934;2023-03-30T09:47:32;7.13;;;2.97;;
10110;SDS011;5095;49.796;9.934;2023-03-30T09:50:03;8.40;;;2.83;;
10110;SDS011;5095;49.796;9.934;2023-03-30T09:52:31;16.30;;;8.63;;
10110;SDS011;5095;49.796;9.934;2023-03-30T09:57:42;10.33;;;3.20;;
10110;SDS011;5095;49.796;9.934;2023-03-30T10:02:56;9.80;;;3.17;;
10110;SDS011;5095;49.796;9.934;2023-03-30T10:05:22;5.07;;;2.30;;
10110;SDS011;5095;49.796;9.934;2023-03-30T10:07:56;5.77;;;2.50;;
10110;SDS011;5095;49.796;9.934;2023-03-30T10:12:54;5.80;;;2.80;;
10110;SDS011;5095;49.796;9.934;2023-03-30T10:15:21;7.53;;;3.30;;
10110;SDS011;5095;49.796;9.934;2023-03-30T10:17:48;5.40;;;2.60;;
10110;SDS011;5095;49.796;9.934;2023-03-30T10:20:27;6.00;;;2.73;;
10110;SDS011;5095;49.796;9.934;2023-03-30T10:22:58;5.70;;;2.23;;
10110;SDS011;5095;49.796;9.934;2023-03-30T10:25:26;9.13;;;2.80;;
10110;SDS011;5095;49.796;9.934;2023-03-30T10:27:57;4.60;;;2.53;;
10110;SDS011;5095;49.796;9.934;2023-03-30T10:30:25;7.60;;;2.60;;
10110;SDS011;5095;49.796;9.934;2023-03-30T10:32:53;7.03;;;2.90;;
10110;SDS011;5095;49.796;9.934;2023-03-30T10:35:21;5.20;;;2.60;;
10110;SDS011;5095;49.796;9.934;2023-03-30T10:37:48;5.83;;;2.80;;
10110;SDS011;5095;49.796;9.934;2023-03-30T10:42:41;4.93;;;2.50;;
10110;SDS011;5095;49.796;9.934;2023-03-30T10:45:14;8.87;;;2.90;;
10110;SDS011;5095;49.796;9.934;2023-03-30T10:50:34;4.07;;;2.10;;
10110;SDS011;5095;49.796;9.934;2023-03-30T10:53:24;10.07;;;2.60;;
10110;SDS011;5095;49.796;9.934;2023-03-30T11:01:07;4.63;;;2.43;;
10110;SDS011;5095;49.796;9.934;2023-03-30T11:03:37;7.20;;;2.43;;
10110;SDS011;5095;49.796;9.934;2023-03-30T11:06:05;6.23;;;2.50;;
10110;SDS011;5095;49.796;9.934;2023-03-30T11:08:43;5.33;;;2.60;;
10110;SDS011;5095;49.796;9.934;2023-03-30T11:11:15;7.73;;;2.57;;
10110;SDS011;5095;49.796;9.934;2023-03-30T11:13:44;6.10;;;2.13;;
10110;SDS011;5095;49.796;9.934;2023-03-30T11:16:20;4.70;;;2.80;;
10110;SDS011;5095;49.796;9.934;2023-03-30T11:21:27;7.90;;;3.20;;
10110;SDS011;5095;49.796;9.934;2023-03-30T11:23:56;7.47;;;2.67;;
10110;SDS011;5095;49.796;9.934;2023-03-30T11:26:37;7.67;;;2.83;;
10110;SDS011;5095;49.796;9.934;2023-03-30T11:29:08;3.83;;;2.20;;
10110;SDS011;5095;49.796;9.934;2023-03-30T11:34:27;8.23;;;4.57;;
10110;SDS011;5095;49.796;9.934;2023-03-30T11:36:57;5.67;;;2.20;;
10110;SDS011;5095;49.796;9.934;2023-03-30T11:39:26;5.97;;;2.10;;
10110;SDS011;5095;49.796;9.934;2023-03-30T11:41:56;9.07;;;3.50;;
10110;SDS011;5095;49.796;9.934;2023-03-30T11:44:22;7.67;;;2.27;;
10110;SDS011;5095;49.796;9.934;2023-03-30T11:57:29;6.10;;;2.90;;
10110;SDS011;5095;49.796;9.934;2023-03-30T12:05:06;9.00;;;2.30;;
10110;SDS011;5095;49.796;9.934;2023-03-30T12:10:01;7.30;;;2.13;;
10110;SDS011;5095;49.796;9.934;2023-03-30T12:12:36;5.17;;;2.30;;
10110;SDS011;5095;49.796;9.934;2023-03-30T12:27:33;5.33;;;2.30;;
10110;SDS011;5095;49.796;9.934;2023-03-30T12:30:22;7.07;;;1.90;;
10110;SDS011;5095;49.796;9.934;2023-03-30T12:32:56;9.00;;;2.57;;
10110;SDS011;5095;49.796;9.934;2023-03-30T12:38:07;4.67;;;1.97;;
10110;SDS011;5095;49.796;9.934;2023-03-30T12:40:33;5.77;;;2.07;;
10110;SDS011;5095;49.796;9.934;2023-03-30T12:43:11;5.57;;;2.00;;
10110;SDS011;5095;49.796;9.934;2023-03-30T12:54:08;4.07;;;1.90;;
10110;SDS011;5095;49.796;9.934;2023-03-30T13:02:02;4.20;;;1.67;;
10110;SDS011;5095;49.796;9.934;2023-03-30T13:04:35;4.23;;;1.60;;
10110;SDS011;5095;49.796;9.934;2023-03-30T13:07:14;4.40;;;1.50;;
10110;SDS011;5095;49.796;9.934;2023-03-30T13:09:51;4.50;;;1.50;;
10110;SDS011;5095;49.796;9.934;2023-03-30T13:12:28;8.20;;;2.00;;
10110;SDS011;5095;49.796;9.934;2023-03-30T13:14:56;6.37;;;1.87;;
10110;SDS011;5095;49.796;9.934;2023-03-30T13:17:23;7.60;;;1.90;;
10110;SDS011;5095;49.796;9.934;2023-03-30T13:22:35;5.17;;;1.70;;
10110;SDS011;5095;49.796;9.934;2023-03-30T13:29:57;4.57;;;1.60;;
10110;SDS011;5095;49.796;9.934;2023-03-30T13:35:06;4.80;;;1.73;;
10110;SDS011;5095;49.796;9.934;2023-03-30T13:40:19;4.17;;;1.20;;
10110;SDS011;5095;49.796;9.934;2023-03-30T13:50:21;3.97;;;1.27;;
10110;SDS011;5095;49.796;9.934;2023-03-30T13:52:47;3.70;;;1.13;;
10110;SDS011;5095;49.796;9.934;2023-03-30T13:55:16;2.27;;;0.93;;
10110;SDS011;5095;49.796;9.934;2023-03-30T13:57:43;1.97;;;0.80;;
10110;SDS011;5095;49.796;9.934;2023-03-30T14:00:20;2.90;;;1.00;;
10110;SDS011;5095;49.796;9.934;2023-03-30T14:02:48;2.17;;;0.90;;
10110;SDS011;5095;49.796;9.934;2023-03-30T14:05:18;2.83;;;0.80;;
10110;SDS011;5095;49.796;9.934;2023-03-30T14:07:45;1.27;;;0.77;;
10110;SDS011;5095;49.796;9.934;2023-03-30T14:10:16;2.00;;;0.90;;
10110;SDS011;5095;49.796;9.934;2023-03-30T14:12:43;2.37;;;1.00;;
10110;SDS011;5095;49.796;9.934;2023-03-30T14:15:20;2.17;;;0.87;;
10110;SDS011;5095;49.796;9.934;2023-03-30T14:17:51;4.90;;;1.70;;
10110;SDS011;5095;49.796;9.934;2023-03-30T14:20:20;1.57;;;0.77;;
10110;SDS011;5095;49.796;9.934;2023-03-30T14:22:49;2.93;;;0.80;;
10110;SDS011;5095;49.796;9.934;2023-03-30T14:27:50;1.73;;;0.77;;
10110;SDS011;5095;49.796;9.934;2023-03-30T14:32:46;1.03;;;0.67;;
10110;SDS011;5095;49.796;9.934;2023-03-30T14:35:15;2.07;;;1.03;;
10110;SDS011;5095;49.796;9.934;2023-03-30T14:37:44;3.50;;;0.83;;
10110;SDS011;5095;49.796;9.934;2023-03-30T14:40:14;2.67;;;1.10;;
10110;SDS011;5095;49.796;9.934;2023-03-30T14:42:40;2.00;;;0.93;;
10110;SDS011;5095;49.796;9.934;2023-03-30T14:45:07;3.27;;;1.30;;
10110;SDS011;5095;49.796;9.934;2023-03-30T14:47:34;6.03;;;1.27;;
10110;SDS011;5095;49.796;9.934;2023-03-30T14:50:03;4.47;;;1.97;;
10110;SDS011;5095;49.796;9.934;2023-03-30T14:52:31;3.63;;;1.23;;
10110;SDS011;5095;49.796;9.934;2023-03-30T14:54:57;3.83;;;1.43;;
10110;SDS011;5095;49.796;9.934;2023-03-30T14:57:23;4.60;;;1.40;;
10110;SDS011;5095;49.796;9.934;2023-03-30T14:59:52;3.97;;;2.10;;
10110;SDS011;5095;49.796;9.934;2023-03-30T15:02:20;6.50;;;2.30;;
10110;SDS011;5095;49.796;9.934;2023-03-30T15:04:47;3.30;;;1.10;;
10110;SDS011;5095;49.796;9.934;2023-03-30T15:07:14;5.17;;;1.20;;
10110;SDS011;5095;49.796;9.934;2023-03-30T15:09:40;2.43;;;1.00;;
10110;SDS011;5095;49.796;9.934;2023-03-30T15:12:07;3.57;;;1.00;;
10110;SDS011;5095;49.796;9.934;2023-03-30T15:14:36;1.80;;;1.03;;
10110;SDS011;5095;49.796;9.934;2023-03-30T15:17:07;2.07;;;1.17;;
10110;SDS011;5095;49.796;9.934;2023-03-30T15:19:35;4.20;;;1.00;;
10110;SDS011;5095;49.796;9.934;2023-03-30T15:22:02;5.17;;;1.20;;
10110;SDS011;5095;49.796;9.934;2023-03-30T15:24:30;1.37;;;0.83;;
10110;SDS011;5095;49.796;9.934;2023-03-30T15:26:57;4.57;;;3.03;;
10110;SDS011;5095;49.796;9.934;2023-03-30T15:29:24;3.73;;;1.17;;
10110;SDS011;5095;49.796;9.934;2023-03-30T15:32:05;5.17;;;1.33;;
10110;SDS011;5095;49.796;9.934;2023-03-30T15:34:33;5.38;;;1.30;;
10110;SDS011;5095;49.796;9.934;2023-03-30T15:36:59;7.07;;;1.57;;
10110;SDS011;5095;49.796;9.934;2023-03-30T15:39:26;4.17;;;1.30;;
10110;SDS011;5095;49.796;9.934;2023-03-30T15:42:06;4.43;;;2.17;;
10110;SDS011;5095;49.796;9.934;2023-03-30T15:44:34;6.03;;;1.40;;
10110;SDS011;5095;49.796;9.934;2023-03-30T15:47:01;6.55;;;1.77;;
10110;SDS011;5095;49.796;9.934;2023-03-30T15:49:35;6.85;;;1.80;;
10110;SDS011;5095;49.796;9.934;2023-03-30T15:52:07;4.50;;;1.73;;
10110;SDS011;5095;49.796;9.934;2023-03-30T15:54:37;4.63;;;2.00;;
10110;SDS011;5095;49.796;9.934;2023-03-30T15:57:50;4.30;;;1.80;;
10110;SDS011;5095;49.796;9.934;2023-03-30T15:59:52;2.43;;;1.10;;
10110;SDS011;5095;49.796;9.934;2023-03-30T16:02:23;5.23;;;1.83;;
10110;SDS011;5095;49.796;9.934;2023-03-30T16:05:00;9.05;;;2.47;;
10110;SDS011;5095;49.796;9.934;2023-03-30T16:07:26;4.57;;;1.63;;
10110;SDS011;5095;49.796;9.934;2023-03-30T16:09:53;5.93;;;1.50;;
10110;SDS011;5095;49.796;9.934;2023-03-30T16:12:21;8.33;;;2.60;;
10110;SDS011;5095;49.796;9.934;2023-03-30T16:14:49;4.17;;;1.43;;
10110;SDS011;5095;49.796;9.934;2023-03-30T16:17:15;3.47;;;1.50;;
10110;SDS011;5095;49.796;9.934;2023-03-30T16:19:41;4.20;;;1.50;;
10110;SDS011;5095;49.796;9.934;2023-03-30T16:22:09;2.53;;;1.30;;
10110;SDS011;5095;49.796;9.934;2023-03-30T16:24:35;3.90;;;1.50;;
10110;SDS011;5095;49.796;9.934;2023-03-30T16:27:01;4.37;;;2.63;;
10110;SDS011;5095;49.796;9.934;2023-03-30T16:29:28;4.13;;;2.37;;
10110;SDS011;5095;49.796;9.934;2023-03-30T16:31:55;4.20;;;1.60;;
10110;SDS011;5095;49.796;9.934;2023-03-30T16:34:21;2.53;;;1.40;;
10110;SDS011;5095;49.796;9.934;2023-03-30T16:36:47;2.10;;;1.23;;
10110;SDS011;5095;49.796;9.934;2023-03-30T16:39:18;4.00;;;1.70;;
10110;SDS011;5095;49.796;9.934;2023-03-30T16:41:45;3.10;;;1.10;;
10110;SDS011;5095;49.796;9.934;2023-03-30T16:44:12;3.27;;;1.50;;
10110;SDS011;5095;49.796;9.934;2023-03-30T16:46:38;4.27;;;1.30;;
10110;SDS011;5095;49.796;9.934;2023-03-30T16:49:05;4.30;;;1.67;;
10110;SDS011;5095;49.796;9.934;2023-03-30T16:51:31;5.43;;;2.30;;
10110;SDS011;5095;49.796;9.934;2023-03-30T16:53:57;3.13;;;1.70;;
10110;SDS011;5095;49.796;9.934;2023-03-30T16:56:23;4.73;;;2.00;;
10110;SDS011;5095;49.796;9.934;2023-03-30T16:58:50;4.13;;;2.10;;
10110;SDS011;5095;49.796;9.934;2023-03-30T17:01:16;5.57;;;1.43;;
10110;SDS011;5095;49.796;9.934;2023-03-30T17:03:42;2.60;;;1.60;;
10110;SDS011;5095;49.796;9.934;2023-03-30T17:06:08;4.00;;;1.67;;
10110;SDS011;5095;49.796;9.934;2023-03-30T17:08:35;7.20;;;2.40;;
10110;SDS011;5095;49.796;9.934;2023-03-30T17:11:01;3.63;;;2.13;;
10110;SDS011;5095;49.796;9.934;2023-03-30T17:13:29;4.57;;;2.00;;
10110;SDS011;5095;49.796;9.934;2023-03-30T17:15:56;6.20;;;2.80;;
10110;SDS011;5095;49.796;9.934;2023-03-30T17:18:24;5.97;;;2.80;;
10110;SDS011;5095;49.796;9.934;2023-03-30T17:20:59;7.00;;;2.07;;
10110;SDS011;5095;49.796;9.934;2023-03-30T17:23:29;4.00;;;2.07;;
10110;SDS011;5095;49.796;9.934;2023-03-30T17:25:59;5.10;;;2.07;;
10110;SDS011;5095;49.796;9.934;2023-03-30T17:28:26;25.23;;;19.33;;
10110;SDS011;5095;49.796;9.934;2023-03-30T17:30:54;6.90;;;3.20;;
10110;SDS011;5095;49.796;9.934;2023-03-30T17:33:21;6.83;;;2.70;;
10110;SDS011;5095;49.796;9.934;2023-03-30T17:35:48;5.57;;;2.30;;